DHK053 KLAX-KCVG
Flight info
| Callsign | DHK053 |
|---|---|
| Flight time | 3h 37m |
| Altitude | 35000 |
| Route | DOTSS2 CLEEE PKE DRK KA36S CIM KK42A KK45G MAHER FAM TERGE SARGO5 |
| Aircraft | B77L/H-SDE1E2E3FGHIJ2J3J4J5M1RWXY/LB1D1 |
Departure
| Time | 2026-04-20 17:12 |
|---|---|
| Airport | Los Angeles International Airport (KLAX) |
Arrival
| Time | 2026-04-20 20:50 |
|---|---|
| Airport | Cincinnati Northern Kentucky International Airport (KCVG) |
| Time | Latitude | Longitude | Altitude | Speed | Heading |
|---|---|---|---|---|---|
| 2026-04-20 16:43 | 33.93318 | -118.40293 | 97 ft | 0 kts | 174° |
| 2026-04-20 17:02 | 33.93321 | -118.40294 | 99 ft | 3 kts | 174° |
| 2026-04-20 17:02 | 33.93348 | -118.40297 | 97 ft | 4 kts | 174° |
| 2026-04-20 17:02 | 33.93374 | -118.40301 | 97 ft | 4 kts | 172° |
| 2026-04-20 17:03 | 33.93398 | -118.40309 | 97 ft | 4 kts | 131° |
| 2026-04-20 17:03 | 33.93404 | -118.40328 | 96 ft | 2 kts | 83° |
| 2026-04-20 17:03 | 33.93401 | -118.40358 | 95 ft | 2 kts | 83° |
| 2026-04-20 17:03 | 33.93400 | -118.40361 | 95 ft | 0 kts | 83° |
| 2026-04-20 17:05 | 33.93401 | -118.40359 | 95 ft | 3 kts | 83° |
| 2026-04-20 17:06 | 33.93409 | -118.40278 | 99 ft | 11 kts | 82° |
| 2026-04-20 17:06 | 33.93423 | -118.40148 | 101 ft | 17 kts | 83° |
| 2026-04-20 17:06 | 33.93436 | -118.40003 | 101 ft | 17 kts | 84° |
| 2026-04-20 17:06 | 33.93449 | -118.39858 | 99 ft | 17 kts | 84° |
| 2026-04-20 17:07 | 33.93465 | -118.39714 | 98 ft | 17 kts | 79° |
| 2026-04-20 17:07 | 33.93482 | -118.39570 | 99 ft | 17 kts | 83° |
| 2026-04-20 17:07 | 33.93497 | -118.39425 | 98 ft | 17 kts | 83° |
| 2026-04-20 17:07 | 33.93512 | -118.39260 | 100 ft | 22 kts | 84° |
| 2026-04-20 17:08 | 33.93529 | -118.39077 | 98 ft | 22 kts | 79° |
| 2026-04-20 17:08 | 33.93551 | -118.38893 | 100 ft | 22 kts | 83° |
| 2026-04-20 17:08 | 33.93569 | -118.38710 | 98 ft | 22 kts | 83° |
| 2026-04-20 17:08 | 33.93588 | -118.38527 | 98 ft | 22 kts | 83° |
| 2026-04-20 17:09 | 33.93604 | -118.38366 | 98 ft | 13 kts | 83° |
| 2026-04-20 17:09 | 33.93615 | -118.38314 | 101 ft | 0 kts | 63° |
| 2026-04-20 17:09 | 33.93616 | -118.38310 | 100 ft | 1 kts | 63° |
| 2026-04-20 17:09 | 33.93617 | -118.38309 | 100 ft | 0 kts | 63° |
| 2026-04-20 17:11 | 33.93645 | -118.38285 | 101 ft | 11 kts | 21° |
| 2026-04-20 17:11 | 33.93719 | -118.38331 | 104 ft | 11 kts | 293° |
| 2026-04-20 17:11 | 33.93716 | -118.38470 | 100 ft | 40 kts | 264° |
| 2026-04-20 17:12 | 33.93648 | -118.39118 | 99 ft | 113 kts | 263° |
| 2026-04-20 17:12 | 33.93531 | -118.40308 | 107 ft | 169 kts | 262° |
| 2026-04-20 17:12 | 33.93381 | -118.41726 | 687 ft | 169 kts | 260° |
| 2026-04-20 17:12 | 33.93196 | -118.43190 | 1244 ft | 190 kts | 262° |
| 2026-04-20 17:13 | 33.93033 | -118.44885 | 1739 ft | 211 kts | 263° |
| 2026-04-20 17:13 | 33.92748 | -118.46717 | 2070 ft | 238 kts | 244° |
| 2026-04-20 17:13 | 33.91652 | -118.48277 | 2585 ft | 252 kts | 221° |
| 2026-04-20 17:13 | 33.90355 | -118.49750 | 3414 ft | 261 kts | 226° |
| 2026-04-20 17:14 | 33.89174 | -118.51441 | 4389 ft | 264 kts | 231° |
| 2026-04-20 17:14 | 33.88048 | -118.53155 | 5424 ft | 266 kts | 231° |
| 2026-04-20 17:14 | 33.86857 | -118.54868 | 6337 ft | 267 kts | 221° |
| 2026-04-20 17:14 | 33.85207 | -118.55891 | 7101 ft | 272 kts | 189° |
| 2026-04-20 17:15 | 33.83333 | -118.55798 | 8068 ft | 270 kts | 169° |
| 2026-04-20 17:15 | 33.81473 | -118.55296 | 8894 ft | 276 kts | 168° |
| 2026-04-20 17:15 | 33.79591 | -118.54774 | 9860 ft | 278 kts | 168° |
| 2026-04-20 17:15 | 33.77687 | -118.54248 | 10645 ft | 287 kts | 169° |
| 2026-04-20 17:16 | 33.75648 | -118.53692 | 10927 ft | 316 kts | 169° |
| 2026-04-20 17:16 | 33.73399 | -118.53083 | 11147 ft | 344 kts | 168° |
| 2026-04-20 17:16 | 33.71100 | -118.52008 | 11428 ft | 367 kts | 148° |
| 2026-04-20 17:16 | 33.69259 | -118.49876 | 12259 ft | 382 kts | 128° |
| 2026-04-20 17:17 | 33.68774 | -118.48966 | 12616 ft | 385 kts | 121° |
| 2026-04-20 17:17 | 33.68139 | -118.47191 | 13265 ft | 387 kts | 112° |
| 2026-04-20 17:17 | 33.67288 | -118.44080 | 14125 ft | 396 kts | 111° |
| 2026-04-20 17:17 | 33.66401 | -118.40914 | 14958 ft | 403 kts | 112° |
| 2026-04-20 17:18 | 33.65470 | -118.37721 | 15872 ft | 408 kts | 112° |
| 2026-04-20 17:18 | 33.64554 | -118.34479 | 16699 ft | 411 kts | 108° |
| 2026-04-20 17:18 | 33.64207 | -118.31026 | 17237 ft | 426 kts | 93° |
| 2026-04-20 17:18 | 33.64272 | -118.27431 | 17922 ft | 435 kts | 91° |
| 2026-04-20 17:19 | 33.64355 | -118.23769 | 18703 ft | 440 kts | 91° |
| 2026-04-20 17:19 | 33.64417 | -118.20079 | 19469 ft | 445 kts | 91° |
| 2026-04-20 17:19 | 33.64452 | -118.16347 | 20218 ft | 449 kts | 92° |
| 2026-04-20 17:19 | 33.64466 | -118.12576 | 20934 ft | 455 kts | 92° |
| 2026-04-20 17:20 | 33.64468 | -118.08755 | 21631 ft | 461 kts | 92° |
| 2026-04-20 17:20 | 33.64463 | -118.04887 | 22316 ft | 466 kts | 92° |
| 2026-04-20 17:20 | 33.64456 | -118.00970 | 23020 ft | 471 kts | 92° |
| 2026-04-20 17:20 | 33.64449 | -117.97016 | 23691 ft | 477 kts | 92° |
| 2026-04-20 17:21 | 33.64442 | -117.93058 | 24279 ft | 481 kts | 92° |
| 2026-04-20 17:21 | 33.64434 | -117.89037 | 24955 ft | 483 kts | 92° |
| 2026-04-20 17:21 | 33.64426 | -117.84991 | 25611 ft | 486 kts | 92° |
| 2026-04-20 17:21 | 33.64416 | -117.80921 | 26239 ft | 489 kts | 91° |
| 2026-04-20 17:22 | 33.64652 | -117.76833 | 26784 ft | 495 kts | 82° |
| 2026-04-20 17:22 | 33.65389 | -117.72775 | 27304 ft | 501 kts | 77° |
| 2026-04-20 17:22 | 33.66278 | -117.68706 | 27870 ft | 505 kts | 76° |
| 2026-04-20 17:22 | 33.67181 | -117.64611 | 28451 ft | 508 kts | 77° |
| 2026-04-20 17:23 | 33.68053 | -117.60482 | 29025 ft | 511 kts | 78° |
| 2026-04-20 17:23 | 33.68890 | -117.56319 | 29562 ft | 514 kts | 78° |
| 2026-04-20 17:23 | 33.69701 | -117.52123 | 30075 ft | 517 kts | 79° |
| 2026-04-20 17:23 | 33.70500 | -117.47910 | 30613 ft | 516 kts | 79° |
| 2026-04-20 17:24 | 33.71289 | -117.43726 | 31267 ft | 512 kts | 78° |
| 2026-04-20 17:24 | 33.72074 | -117.39567 | 31998 ft | 507 kts | 78° |
| 2026-04-20 17:24 | 33.72853 | -117.35449 | 32637 ft | 504 kts | 78° |
| 2026-04-20 17:24 | 33.73629 | -117.31351 | 33204 ft | 503 kts | 78° |
| 2026-04-20 17:25 | 33.74393 | -117.27317 | 33754 ft | 501 kts | 78° |
| 2026-04-20 17:25 | 33.75127 | -117.23238 | 34297 ft | 498 kts | 82° |
| 2026-04-20 17:25 | 33.75362 | -117.19098 | 34723 ft | 495 kts | 93° |
| 2026-04-20 17:25 | 33.75188 | -117.14973 | 35059 ft | 495 kts | 95° |
| 2026-04-20 17:26 | 33.74986 | -117.11124 | 35071 ft | 500 kts | 95° |
| 2026-04-20 17:26 | 33.74701 | -117.02793 | 35081 ft | 496 kts | 93° |
| 2026-04-20 17:27 | 33.74543 | -116.94545 | 35091 ft | 493 kts | 93° |
| 2026-04-20 17:27 | 33.74362 | -116.86296 | 35076 ft | 493 kts | 93° |
| 2026-04-20 17:28 | 33.74166 | -116.78034 | 35074 ft | 494 kts | 93° |
| 2026-04-20 17:28 | 33.73968 | -116.69815 | 35036 ft | 496 kts | 93° |
| 2026-04-20 17:29 | 33.73763 | -116.61468 | 35000 ft | 497 kts | 92° |
| 2026-04-20 17:29 | 33.73556 | -116.53227 | 34992 ft | 497 kts | 93° |
| 2026-04-20 17:30 | 33.73341 | -116.44921 | 34987 ft | 497 kts | 93° |
| 2026-04-20 17:30 | 33.73121 | -116.36612 | 34991 ft | 497 kts | 93° |
| 2026-04-20 17:31 | 33.72895 | -116.28299 | 34993 ft | 497 kts | 93° |
| 2026-04-20 17:31 | 33.72665 | -116.20044 | 34991 ft | 497 kts | 92° |
| 2026-04-20 17:32 | 33.72430 | -116.11739 | 35002 ft | 498 kts | 92° |
| 2026-04-20 17:32 | 33.73053 | -116.03510 | 34997 ft | 496 kts | 72° |
| 2026-04-20 17:33 | 33.75368 | -115.95687 | 34999 ft | 497 kts | 70° |
| 2026-04-20 17:33 | 33.77691 | -115.87836 | 34992 ft | 499 kts | 70° |
| 2026-04-20 17:34 | 33.79924 | -115.79930 | 34991 ft | 499 kts | 71° |
| 2026-04-20 17:34 | 33.82114 | -115.71989 | 34987 ft | 500 kts | 71° |
| 2026-04-20 17:35 | 33.84276 | -115.64106 | 34988 ft | 500 kts | 71° |
| 2026-04-20 17:35 | 33.86451 | -115.56170 | 34980 ft | 499 kts | 71° |
| 2026-04-20 17:36 | 33.88624 | -115.48242 | 34970 ft | 498 kts | 71° |
| 2026-04-20 17:36 | 33.90787 | -115.40325 | 34974 ft | 497 kts | 71° |
| 2026-04-20 17:37 | 33.92580 | -115.33745 | 34970 ft | 497 kts | 71° |
| 2026-04-20 17:37 | 33.94726 | -115.25841 | 34959 ft | 497 kts | 71° |
| 2026-04-20 17:38 | 33.96869 | -115.17934 | 34969 ft | 496 kts | 71° |
| 2026-04-20 17:38 | 33.99006 | -115.10023 | 34960 ft | 497 kts | 71° |
| 2026-04-20 17:39 | 34.01143 | -115.02091 | 34958 ft | 497 kts | 71° |
| 2026-04-20 17:39 | 34.03271 | -114.94163 | 34960 ft | 497 kts | 71° |
| 2026-04-20 17:40 | 34.05397 | -114.86224 | 34951 ft | 497 kts | 71° |
| 2026-04-20 17:40 | 34.07515 | -114.78294 | 34954 ft | 497 kts | 71° |
| 2026-04-20 17:41 | 34.09615 | -114.70409 | 34947 ft | 496 kts | 71° |
| 2026-04-20 17:41 | 34.11771 | -114.62494 | 34945 ft | 496 kts | 70° |
| 2026-04-20 17:42 | 34.14018 | -114.54617 | 34948 ft | 496 kts | 70° |
| 2026-04-20 17:42 | 34.16266 | -114.46737 | 34942 ft | 496 kts | 70° |
| 2026-04-20 17:43 | 34.18495 | -114.38846 | 34943 ft | 496 kts | 70° |
| 2026-04-20 17:43 | 34.20710 | -114.30949 | 34943 ft | 496 kts | 70° |
| 2026-04-20 17:44 | 34.22918 | -114.23053 | 34939 ft | 496 kts | 70° |
| 2026-04-20 17:44 | 34.25121 | -114.15154 | 34940 ft | 496 kts | 70° |
| 2026-04-20 17:45 | 34.27305 | -114.07304 | 34935 ft | 496 kts | 70° |
| 2026-04-20 17:45 | 34.29495 | -113.99405 | 34940 ft | 495 kts | 69° |
| 2026-04-20 17:46 | 34.31684 | -113.91497 | 34946 ft | 495 kts | 69° |
| 2026-04-20 17:46 | 34.33861 | -113.83603 | 34947 ft | 494 kts | 69° |
| 2026-04-20 17:47 | 34.36034 | -113.75703 | 34943 ft | 494 kts | 70° |
| 2026-04-20 17:47 | 34.38196 | -113.67817 | 34943 ft | 493 kts | 69° |
| 2026-04-20 17:48 | 34.40352 | -113.59937 | 34941 ft | 492 kts | 69° |
| 2026-04-20 17:48 | 34.42486 | -113.52111 | 34943 ft | 492 kts | 69° |
| 2026-04-20 17:49 | 34.44628 | -113.44234 | 34951 ft | 492 kts | 69° |
| 2026-04-20 17:49 | 34.46760 | -113.36366 | 34958 ft | 491 kts | 69° |
| 2026-04-20 17:50 | 34.48886 | -113.28507 | 34952 ft | 491 kts | 69° |
| 2026-04-20 17:50 | 34.51005 | -113.20647 | 34958 ft | 490 kts | 69° |
| 2026-04-20 17:51 | 34.53114 | -113.12804 | 34960 ft | 489 kts | 69° |
| 2026-04-20 17:51 | 34.55217 | -113.04956 | 34972 ft | 488 kts | 69° |
| 2026-04-20 17:52 | 34.57315 | -112.97107 | 34966 ft | 488 kts | 69° |
| 2026-04-20 17:52 | 34.59390 | -112.89317 | 34971 ft | 488 kts | 69° |
| 2026-04-20 17:53 | 34.61476 | -112.81471 | 34967 ft | 488 kts | 69° |
| 2026-04-20 17:53 | 34.63553 | -112.73630 | 34981 ft | 488 kts | 69° |
| 2026-04-20 17:54 | 34.65621 | -112.65799 | 34968 ft | 487 kts | 69° |
| 2026-04-20 17:54 | 34.67683 | -112.57972 | 34968 ft | 486 kts | 69° |
| 2026-04-20 17:55 | 34.69737 | -112.50152 | 34959 ft | 485 kts | 69° |
| 2026-04-20 17:55 | 34.70802 | -112.46268 | 35186 ft | 483 kts | 67° |
| 2026-04-20 17:55 | 34.71959 | -112.42443 | 35206 ft | 482 kts | 65° |
| 2026-04-20 17:56 | 34.74354 | -112.34846 | 35165 ft | 480 kts | 65° |
| 2026-04-20 17:56 | 34.76750 | -112.27267 | 35133 ft | 479 kts | 65° |
| 2026-04-20 17:57 | 34.79098 | -112.19750 | 35082 ft | 478 kts | 65° |
| 2026-04-20 17:57 | 34.81443 | -112.12174 | 35075 ft | 478 kts | 65° |
| 2026-04-20 17:58 | 34.83781 | -112.04591 | 35111 ft | 477 kts | 65° |
| 2026-04-20 17:58 | 34.86107 | -111.97032 | 35156 ft | 476 kts | 65° |
| 2026-04-20 17:59 | 34.88419 | -111.89499 | 35198 ft | 475 kts | 65° |
| 2026-04-20 17:59 | 34.90714 | -111.82009 | 35200 ft | 474 kts | 65° |
| 2026-04-20 18:00 | 34.93022 | -111.74454 | 35211 ft | 475 kts | 66° |
| 2026-04-20 18:00 | 34.95323 | -111.66901 | 35171 ft | 476 kts | 66° |
| 2026-04-20 18:01 | 34.97625 | -111.59327 | 35215 ft | 476 kts | 66° |
| 2026-04-20 18:01 | 34.98775 | -111.55534 | 35036 ft | 476 kts | 66° |
| 2026-04-20 18:01 | 34.99923 | -111.51744 | 35042 ft | 477 kts | 66° |
| 2026-04-20 18:02 | 35.02219 | -111.44149 | 35036 ft | 477 kts | 66° |
| 2026-04-20 18:02 | 35.04510 | -111.36548 | 35036 ft | 477 kts | 66° |
| 2026-04-20 18:03 | 35.06784 | -111.28986 | 35038 ft | 477 kts | 66° |
| 2026-04-20 18:03 | 35.09065 | -111.21381 | 35027 ft | 476 kts | 66° |
| 2026-04-20 18:04 | 35.11340 | -111.13773 | 35025 ft | 476 kts | 67° |
| 2026-04-20 18:04 | 35.13612 | -111.06157 | 35052 ft | 478 kts | 67° |
| 2026-04-20 18:05 | 35.17022 | -110.94693 | 35011 ft | 480 kts | 67° |
| 2026-04-20 18:05 | 35.19285 | -110.87058 | 35009 ft | 481 kts | 67° |
| 2026-04-20 18:06 | 35.21562 | -110.79353 | 35011 ft | 482 kts | 67° |
| 2026-04-20 18:06 | 35.23835 | -110.71638 | 35008 ft | 483 kts | 68° |
| 2026-04-20 18:07 | 35.26103 | -110.63925 | 35006 ft | 484 kts | 68° |
| 2026-04-20 18:07 | 35.28376 | -110.56173 | 35004 ft | 484 kts | 68° |
| 2026-04-20 18:08 | 35.30646 | -110.48407 | 35001 ft | 484 kts | 68° |
| 2026-04-20 18:08 | 35.32911 | -110.40644 | 35002 ft | 485 kts | 68° |
| 2026-04-20 18:09 | 35.35171 | -110.32866 | 34995 ft | 485 kts | 68° |
| 2026-04-20 18:09 | 35.37430 | -110.25070 | 34994 ft | 485 kts | 68° |
| 2026-04-20 18:10 | 35.39681 | -110.17285 | 35000 ft | 484 kts | 68° |
| 2026-04-20 18:10 | 35.41925 | -110.09505 | 35002 ft | 484 kts | 69° |
| 2026-04-20 18:11 | 35.44155 | -110.01749 | 34992 ft | 484 kts | 69° |
| 2026-04-20 18:11 | 35.46389 | -109.93958 | 34990 ft | 485 kts | 69° |
| 2026-04-20 18:12 | 35.48620 | -109.86154 | 34988 ft | 485 kts | 69° |
| 2026-04-20 18:12 | 35.50851 | -109.78332 | 34984 ft | 485 kts | 69° |
| 2026-04-20 18:13 | 35.53073 | -109.70517 | 34982 ft | 485 kts | 69° |
| 2026-04-20 18:13 | 35.55290 | -109.62695 | 34975 ft | 485 kts | 69° |
| 2026-04-20 18:14 | 35.57503 | -109.54867 | 34971 ft | 485 kts | 69° |
| 2026-04-20 18:14 | 35.59695 | -109.47092 | 34997 ft | 485 kts | 69° |
| 2026-04-20 18:15 | 35.61897 | -109.39263 | 35069 ft | 485 kts | 70° |
| 2026-04-20 18:15 | 35.64090 | -109.31436 | 35141 ft | 485 kts | 70° |
| 2026-04-20 18:16 | 35.66288 | -109.23572 | 35211 ft | 485 kts | 70° |
| 2026-04-20 18:16 | 35.68478 | -109.15716 | 35264 ft | 486 kts | 70° |
| 2026-04-20 18:17 | 35.70664 | -109.07848 | 35268 ft | 486 kts | 70° |
| 2026-04-20 18:17 | 35.72846 | -108.99974 | 35265 ft | 486 kts | 70° |
| 2026-04-20 18:18 | 35.75023 | -108.92098 | 35193 ft | 486 kts | 70° |
| 2026-04-20 18:18 | 35.77198 | -108.84203 | 35119 ft | 487 kts | 70° |
| 2026-04-20 18:19 | 35.79356 | -108.76347 | 35048 ft | 487 kts | 71° |
| 2026-04-20 18:19 | 35.81525 | -108.68429 | 34970 ft | 488 kts | 71° |
| 2026-04-20 18:20 | 35.83690 | -108.60499 | 34976 ft | 488 kts | 71° |
| 2026-04-20 18:20 | 35.85854 | -108.52551 | 34987 ft | 489 kts | 71° |
| 2026-04-20 18:21 | 35.88014 | -108.44595 | 34997 ft | 489 kts | 71° |
| 2026-04-20 18:21 | 35.90159 | -108.36670 | 35008 ft | 489 kts | 72° |
| 2026-04-20 18:22 | 35.92307 | -108.28711 | 35015 ft | 489 kts | 72° |
| 2026-04-20 18:22 | 35.94449 | -108.20747 | 35020 ft | 489 kts | 72° |
| 2026-04-20 18:23 | 35.96586 | -108.12780 | 35034 ft | 488 kts | 72° |
| 2026-04-20 18:23 | 35.98719 | -108.04809 | 35035 ft | 489 kts | 72° |
| 2026-04-20 18:24 | 36.00383 | -107.98146 | 35051 ft | 488 kts | 77° |
| 2026-04-20 18:24 | 36.01791 | -107.89949 | 35055 ft | 488 kts | 79° |
| 2026-04-20 18:25 | 36.03137 | -107.81719 | 35075 ft | 489 kts | 79° |
| 2026-04-20 18:25 | 36.04502 | -107.73494 | 35092 ft | 489 kts | 79° |
| 2026-04-20 18:26 | 36.05882 | -107.65270 | 35088 ft | 489 kts | 79° |
| 2026-04-20 18:26 | 36.07260 | -107.57050 | 35110 ft | 488 kts | 78° |
| 2026-04-20 18:27 | 36.08634 | -107.48821 | 35107 ft | 488 kts | 79° |
| 2026-04-20 18:27 | 36.10001 | -107.40594 | 35118 ft | 488 kts | 79° |
| 2026-04-20 18:28 | 36.11361 | -107.32370 | 35120 ft | 488 kts | 79° |
| 2026-04-20 18:28 | 36.12706 | -107.24185 | 35123 ft | 488 kts | 79° |
| 2026-04-20 18:29 | 36.14055 | -107.15963 | 35123 ft | 487 kts | 79° |
| 2026-04-20 18:29 | 36.15395 | -107.07742 | 35124 ft | 487 kts | 79° |
| 2026-04-20 18:30 | 36.16727 | -106.99529 | 35118 ft | 487 kts | 79° |
| 2026-04-20 18:30 | 36.18053 | -106.91315 | 35116 ft | 486 kts | 80° |
| 2026-04-20 18:31 | 36.19375 | -106.83117 | 35113 ft | 485 kts | 80° |
| 2026-04-20 18:31 | 36.20677 | -106.74983 | 35097 ft | 484 kts | 80° |
| 2026-04-20 18:32 | 36.21980 | -106.66804 | 35093 ft | 484 kts | 79° |
| 2026-04-20 18:32 | 36.23277 | -106.58623 | 35088 ft | 484 kts | 79° |
| 2026-04-20 18:33 | 36.24573 | -106.50423 | 35091 ft | 484 kts | 80° |
| 2026-04-20 18:33 | 36.25860 | -106.42238 | 35088 ft | 483 kts | 81° |
| 2026-04-20 18:34 | 36.27130 | -106.34117 | 35083 ft | 483 kts | 80° |
| 2026-04-20 18:34 | 36.28405 | -106.25924 | 35086 ft | 483 kts | 80° |
| 2026-04-20 18:35 | 36.29674 | -106.17740 | 35075 ft | 483 kts | 80° |
| 2026-04-20 18:35 | 36.30937 | -106.09555 | 35073 ft | 483 kts | 80° |
| 2026-04-20 18:36 | 36.32195 | -106.01363 | 35070 ft | 483 kts | 80° |
| 2026-04-20 18:36 | 36.33446 | -105.93180 | 35076 ft | 483 kts | 80° |
| 2026-04-20 18:37 | 36.34683 | -105.85044 | 35084 ft | 482 kts | 80° |
| 2026-04-20 18:37 | 36.35922 | -105.76866 | 35093 ft | 482 kts | 80° |
| 2026-04-20 18:38 | 36.37152 | -105.68689 | 35124 ft | 482 kts | 80° |
| 2026-04-20 18:38 | 36.38378 | -105.60505 | 35178 ft | 482 kts | 80° |
| 2026-04-20 18:39 | 36.39592 | -105.52365 | 35233 ft | 482 kts | 80° |
| 2026-04-20 18:39 | 36.40809 | -105.44168 | 35289 ft | 483 kts | 80° |
| 2026-04-20 18:40 | 36.42021 | -105.35962 | 35313 ft | 483 kts | 81° |
| 2026-04-20 18:40 | 36.43230 | -105.27741 | 35307 ft | 484 kts | 81° |
| 2026-04-20 18:41 | 36.44432 | -105.19516 | 35312 ft | 484 kts | 81° |
| 2026-04-20 18:41 | 36.45629 | -105.11292 | 35261 ft | 484 kts | 82° |
| 2026-04-20 18:42 | 36.46821 | -105.03054 | 35195 ft | 484 kts | 81° |
| 2026-04-20 18:42 | 36.47415 | -104.98935 | 35063 ft | 484 kts | 82° |
| 2026-04-20 18:42 | 36.48000 | -104.94873 | 35061 ft | 484 kts | 82° |
| 2026-04-20 18:43 | 36.49184 | -104.86615 | 35051 ft | 485 kts | 81° |
| 2026-04-20 18:43 | 36.50260 | -104.78332 | 35061 ft | 485 kts | 82° |
| 2026-04-20 18:44 | 36.51262 | -104.70078 | 35058 ft | 486 kts | 83° |
| 2026-04-20 18:44 | 36.52272 | -104.61759 | 35048 ft | 486 kts | 83° |
| 2026-04-20 18:45 | 36.53290 | -104.53435 | 35047 ft | 486 kts | 83° |
| 2026-04-20 18:45 | 36.54309 | -104.45114 | 35050 ft | 486 kts | 82° |
| 2026-04-20 18:46 | 36.55323 | -104.36787 | 35049 ft | 486 kts | 83° |
| 2026-04-20 18:46 | 36.56321 | -104.28532 | 35127 ft | 486 kts | 83° |
| 2026-04-20 18:47 | 36.57321 | -104.20213 | 35099 ft | 486 kts | 83° |
| 2026-04-20 18:47 | 36.58312 | -104.11894 | 35066 ft | 486 kts | 83° |
| 2026-04-20 18:48 | 36.59300 | -104.03567 | 35066 ft | 486 kts | 83° |
| 2026-04-20 18:48 | 36.60283 | -103.95247 | 35064 ft | 486 kts | 83° |
| 2026-04-20 18:49 | 36.61261 | -103.86917 | 35068 ft | 486 kts | 83° |
| 2026-04-20 18:49 | 36.62227 | -103.78627 | 35065 ft | 486 kts | 83° |
| 2026-04-20 18:50 | 36.63190 | -103.70291 | 35065 ft | 487 kts | 84° |
| 2026-04-20 18:50 | 36.64154 | -103.61933 | 35060 ft | 487 kts | 82° |
| 2026-04-20 18:51 | 36.65109 | -103.53571 | 35059 ft | 487 kts | 84° |
| 2026-04-20 18:51 | 36.66057 | -103.45207 | 35054 ft | 488 kts | 83° |
| 2026-04-20 18:52 | 36.66998 | -103.36884 | 35059 ft | 489 kts | 83° |
| 2026-04-20 18:52 | 36.67939 | -103.28483 | 35057 ft | 490 kts | 83° |
| 2026-04-20 18:53 | 36.68878 | -103.20074 | 35059 ft | 490 kts | 83° |
| 2026-04-20 18:53 | 36.69810 | -103.11657 | 35049 ft | 490 kts | 83° |
| 2026-04-20 18:54 | 36.70736 | -103.03228 | 35049 ft | 490 kts | 83° |
| 2026-04-20 18:54 | 36.71651 | -102.94852 | 35049 ft | 491 kts | 83° |
| 2026-04-20 18:55 | 36.72568 | -102.86404 | 35039 ft | 491 kts | 83° |
| 2026-04-20 18:55 | 36.73478 | -102.77958 | 35037 ft | 491 kts | 83° |
| 2026-04-20 18:56 | 36.74384 | -102.69504 | 35035 ft | 493 kts | 84° |
| 2026-04-20 18:56 | 36.75287 | -102.61002 | 35035 ft | 495 kts | 84° |
| 2026-04-20 18:57 | 36.76186 | -102.52473 | 35029 ft | 497 kts | 84° |
| 2026-04-20 18:57 | 36.77084 | -102.43922 | 35025 ft | 497 kts | 84° |
| 2026-04-20 18:58 | 36.77974 | -102.35383 | 35021 ft | 497 kts | 84° |
| 2026-04-20 18:58 | 36.78860 | -102.26816 | 35020 ft | 498 kts | 84° |
| 2026-04-20 18:59 | 36.79736 | -102.18284 | 35047 ft | 501 kts | 84° |
| 2026-04-20 18:59 | 36.80613 | -102.09646 | 35075 ft | 502 kts | 84° |
| 2026-04-20 19:00 | 36.81488 | -102.01006 | 35090 ft | 501 kts | 83° |
| 2026-04-20 19:00 | 36.82351 | -101.92412 | 35107 ft | 502 kts | 84° |
| 2026-04-20 19:01 | 36.83213 | -101.83758 | 35115 ft | 503 kts | 83° |
| 2026-04-20 19:01 | 36.84071 | -101.75082 | 35111 ft | 503 kts | 84° |
| 2026-04-20 19:02 | 36.84921 | -101.66417 | 35085 ft | 503 kts | 84° |
| 2026-04-20 19:02 | 36.85768 | -101.57729 | 35094 ft | 504 kts | 84° |
| 2026-04-20 19:03 | 36.86606 | -101.49062 | 35094 ft | 505 kts | 84° |
| 2026-04-20 19:03 | 36.87443 | -101.40339 | 35099 ft | 505 kts | 84° |
| 2026-04-20 19:04 | 36.88273 | -101.31613 | 35090 ft | 505 kts | 84° |
| 2026-04-20 19:04 | 36.89095 | -101.22903 | 35109 ft | 505 kts | 84° |
| 2026-04-20 19:05 | 36.89906 | -101.14234 | 35119 ft | 505 kts | 84° |
| 2026-04-20 19:05 | 36.90717 | -101.05503 | 35125 ft | 506 kts | 84° |
| 2026-04-20 19:06 | 36.91522 | -100.96763 | 35133 ft | 506 kts | 84° |
| 2026-04-20 19:06 | 36.92322 | -100.88018 | 35133 ft | 506 kts | 85° |
| 2026-04-20 19:07 | 36.93113 | -100.79289 | 35134 ft | 505 kts | 85° |
| 2026-04-20 19:07 | 36.93893 | -100.70609 | 35129 ft | 504 kts | 85° |
| 2026-04-20 19:08 | 36.95056 | -100.57528 | 35117 ft | 505 kts | 84° |
| 2026-04-20 19:09 | 36.95826 | -100.48780 | 35113 ft | 507 kts | 84° |
| 2026-04-20 19:09 | 36.96593 | -100.39999 | 35116 ft | 508 kts | 84° |
| 2026-04-20 19:10 | 36.97355 | -100.31192 | 35114 ft | 509 kts | 85° |
| 2026-04-20 19:10 | 36.98110 | -100.22394 | 35121 ft | 509 kts | 85° |
| 2026-04-20 19:11 | 36.98853 | -100.13646 | 35115 ft | 508 kts | 85° |
| 2026-04-20 19:11 | 36.99596 | -100.04840 | 35116 ft | 508 kts | 85° |
| 2026-04-20 19:12 | 37.00366 | -99.96033 | 35124 ft | 508 kts | 83° |
| 2026-04-20 19:12 | 37.01310 | -99.87326 | 35122 ft | 508 kts | 83° |
| 2026-04-20 19:13 | 37.02301 | -99.78554 | 35118 ft | 509 kts | 83° |
| 2026-04-20 19:13 | 37.03264 | -99.69778 | 35115 ft | 509 kts | 83° |
| 2026-04-20 19:14 | 37.04043 | -99.62476 | 35121 ft | 509 kts | 83° |
| 2026-04-20 19:14 | 37.05120 | -99.52243 | 35122 ft | 509 kts | 83° |
| 2026-04-20 19:15 | 37.05890 | -99.44878 | 35121 ft | 509 kts | 83° |
| 2026-04-20 19:15 | 37.06798 | -99.36142 | 35122 ft | 509 kts | 83° |
| 2026-04-20 19:16 | 37.07709 | -99.27329 | 35125 ft | 510 kts | 83° |
| 2026-04-20 19:16 | 37.08613 | -99.18514 | 35126 ft | 510 kts | 83° |
| 2026-04-20 19:17 | 37.09510 | -99.09699 | 35128 ft | 510 kts | 83° |
| 2026-04-20 19:17 | 37.10394 | -99.00946 | 35131 ft | 510 kts | 83° |
| 2026-04-20 19:18 | 37.11278 | -98.92129 | 35142 ft | 510 kts | 83° |
| 2026-04-20 19:18 | 37.12157 | -98.83287 | 35139 ft | 511 kts | 83° |
| 2026-04-20 19:19 | 37.13029 | -98.74457 | 35148 ft | 511 kts | 83° |
| 2026-04-20 19:19 | 37.13895 | -98.65611 | 35144 ft | 510 kts | 83° |
| 2026-04-20 19:20 | 37.14753 | -98.56778 | 35149 ft | 510 kts | 83° |
| 2026-04-20 19:20 | 37.15605 | -98.47950 | 35161 ft | 509 kts | 83° |
| 2026-04-20 19:21 | 37.16448 | -98.39131 | 35173 ft | 509 kts | 83° |
| 2026-04-20 19:21 | 37.17280 | -98.30363 | 35186 ft | 510 kts | 83° |
| 2026-04-20 19:22 | 37.18112 | -98.21527 | 35193 ft | 510 kts | 83° |
| 2026-04-20 19:22 | 37.18938 | -98.12686 | 35195 ft | 510 kts | 83° |
| 2026-04-20 19:23 | 37.19757 | -98.03837 | 35194 ft | 510 kts | 83° |
| 2026-04-20 19:23 | 37.20570 | -97.94985 | 35190 ft | 510 kts | 83° |
| 2026-04-20 19:24 | 37.21377 | -97.86134 | 35190 ft | 511 kts | 83° |
| 2026-04-20 19:24 | 37.22177 | -97.77275 | 35200 ft | 511 kts | 83° |
| 2026-04-20 19:25 | 37.22972 | -97.68398 | 35188 ft | 512 kts | 83° |
| 2026-04-20 19:25 | 37.23756 | -97.59571 | 35183 ft | 512 kts | 83° |
| 2026-04-20 19:26 | 37.24538 | -97.50675 | 35192 ft | 513 kts | 83° |
| 2026-04-20 19:26 | 37.25316 | -97.41768 | 35202 ft | 514 kts | 83° |
| 2026-04-20 19:27 | 37.26087 | -97.32854 | 35212 ft | 514 kts | 83° |
| 2026-04-20 19:27 | 37.26854 | -97.23905 | 35209 ft | 514 kts | 83° |
| 2026-04-20 19:28 | 37.27612 | -97.14981 | 35206 ft | 514 kts | 83° |
| 2026-04-20 19:28 | 37.28359 | -97.06111 | 35208 ft | 514 kts | 83° |
| 2026-04-20 19:29 | 37.29104 | -96.97183 | 35212 ft | 514 kts | 83° |
| 2026-04-20 19:29 | 37.29844 | -96.88231 | 35210 ft | 514 kts | 83° |
| 2026-04-20 19:30 | 37.30576 | -96.79289 | 35219 ft | 514 kts | 83° |
| 2026-04-20 19:30 | 37.31301 | -96.70350 | 35221 ft | 514 kts | 83° |
| 2026-04-20 19:31 | 37.32016 | -96.61452 | 35232 ft | 514 kts | 83° |
| 2026-04-20 19:31 | 37.32729 | -96.52497 | 35230 ft | 515 kts | 83° |
| 2026-04-20 19:32 | 37.33435 | -96.43539 | 35240 ft | 515 kts | 83° |
| 2026-04-20 19:32 | 37.34135 | -96.34575 | 35232 ft | 516 kts | 83° |
| 2026-04-20 19:33 | 37.34828 | -96.25601 | 35238 ft | 516 kts | 83° |
| 2026-04-20 19:33 | 37.35515 | -96.16628 | 35232 ft | 516 kts | 83° |
| 2026-04-20 19:34 | 37.36191 | -96.07702 | 35247 ft | 516 kts | 83° |
| 2026-04-20 19:34 | 37.36865 | -95.98713 | 35238 ft | 516 kts | 83° |
| 2026-04-20 19:35 | 37.37533 | -95.89715 | 35240 ft | 516 kts | 83° |
| 2026-04-20 19:35 | 37.38192 | -95.80728 | 35244 ft | 516 kts | 83° |
| 2026-04-20 19:36 | 37.38847 | -95.71728 | 35244 ft | 516 kts | 83° |
| 2026-04-20 19:36 | 37.39488 | -95.62797 | 35253 ft | 516 kts | 82° |
| 2026-04-20 19:37 | 37.40128 | -95.53799 | 35267 ft | 516 kts | 82° |
| 2026-04-20 19:37 | 37.40762 | -95.44799 | 35259 ft | 516 kts | 83° |
| 2026-04-20 19:38 | 37.41387 | -95.35814 | 35252 ft | 516 kts | 83° |
| 2026-04-20 19:38 | 37.42006 | -95.26818 | 35262 ft | 515 kts | 82° |
| 2026-04-20 19:39 | 37.42618 | -95.17832 | 35263 ft | 515 kts | 82° |
| 2026-04-20 19:39 | 37.43219 | -95.08905 | 35263 ft | 515 kts | 83° |
| 2026-04-20 19:40 | 37.43816 | -94.99925 | 35254 ft | 515 kts | 83° |
| 2026-04-20 19:40 | 37.44406 | -94.90943 | 35266 ft | 515 kts | 82° |
| 2026-04-20 19:41 | 37.44991 | -94.81957 | 35256 ft | 515 kts | 82° |
| 2026-04-20 19:41 | 37.45568 | -94.72977 | 35259 ft | 515 kts | 83° |
| 2026-04-20 19:42 | 37.46137 | -94.63999 | 35263 ft | 514 kts | 83° |
| 2026-04-20 19:42 | 37.46700 | -94.55017 | 35278 ft | 515 kts | 82° |
| 2026-04-20 19:43 | 37.47255 | -94.46073 | 35266 ft | 515 kts | 82° |
| 2026-04-20 19:43 | 37.47805 | -94.37079 | 35267 ft | 515 kts | 83° |
| 2026-04-20 19:44 | 37.48348 | -94.28090 | 35265 ft | 515 kts | 83° |
| 2026-04-20 19:44 | 37.48885 | -94.19080 | 35292 ft | 515 kts | 82° |
| 2026-04-20 19:45 | 37.49416 | -94.10063 | 35273 ft | 516 kts | 82° |
| 2026-04-20 19:45 | 37.49950 | -94.01055 | 35269 ft | 515 kts | 81° |
| 2026-04-20 19:46 | 37.51085 | -93.92197 | 35277 ft | 511 kts | 75° |
| 2026-04-20 19:46 | 37.52466 | -93.83455 | 35269 ft | 512 kts | 75° |
| 2026-04-20 19:47 | 37.53836 | -93.74647 | 35280 ft | 512 kts | 75° |
| 2026-04-20 19:47 | 37.55171 | -93.65807 | 35271 ft | 513 kts | 75° |
| 2026-04-20 19:48 | 37.56481 | -93.57000 | 35267 ft | 513 kts | 75° |
| 2026-04-20 19:48 | 37.57788 | -93.48162 | 35269 ft | 513 kts | 75° |
| 2026-04-20 19:49 | 37.59093 | -93.39307 | 35271 ft | 513 kts | 76° |
| 2026-04-20 19:49 | 37.60394 | -93.30437 | 35266 ft | 513 kts | 76° |
| 2026-04-20 19:50 | 37.61687 | -93.21580 | 35267 ft | 513 kts | 76° |
| 2026-04-20 19:50 | 37.62970 | -93.12735 | 35269 ft | 513 kts | 76° |
| 2026-04-20 19:51 | 37.64241 | -93.03929 | 35292 ft | 513 kts | 75° |
| 2026-04-20 19:51 | 37.65515 | -92.95053 | 35267 ft | 513 kts | 75° |
| 2026-04-20 19:52 | 37.66781 | -92.86186 | 35265 ft | 513 kts | 76° |
| 2026-04-20 19:52 | 37.68039 | -92.77318 | 35286 ft | 513 kts | 76° |
| 2026-04-20 19:53 | 37.69282 | -92.68506 | 35293 ft | 512 kts | 75° |
| 2026-04-20 19:53 | 37.70532 | -92.59591 | 35286 ft | 512 kts | 75° |
| 2026-04-20 19:54 | 37.71760 | -92.50795 | 35276 ft | 511 kts | 75° |
| 2026-04-20 19:54 | 37.72987 | -92.41951 | 35281 ft | 511 kts | 75° |
| 2026-04-20 19:55 | 37.74208 | -92.33101 | 35254 ft | 511 kts | 75° |
| 2026-04-20 19:55 | 37.75422 | -92.24250 | 35270 ft | 511 kts | 75° |
| 2026-04-20 19:56 | 37.76428 | -92.16886 | 35264 ft | 512 kts | 75° |
| 2026-04-20 19:56 | 37.77555 | -92.06443 | 35255 ft | 517 kts | 83° |
| 2026-04-20 19:57 | 37.77312 | -91.97301 | 35266 ft | 522 kts | 90° |
| 2026-04-20 19:57 | 37.76780 | -91.88139 | 35275 ft | 523 kts | 90° |
| 2026-04-20 19:58 | 37.76270 | -91.78961 | 35265 ft | 523 kts | 89° |
| 2026-04-20 19:58 | 37.75794 | -91.69847 | 35267 ft | 523 kts | 89° |
| 2026-04-20 19:59 | 37.75320 | -91.60673 | 35273 ft | 523 kts | 89° |
| 2026-04-20 19:59 | 37.74837 | -91.51497 | 35299 ft | 523 kts | 89° |
| 2026-04-20 20:00 | 37.74343 | -91.42312 | 35285 ft | 523 kts | 89° |
| 2026-04-20 20:00 | 37.73842 | -91.33131 | 35283 ft | 523 kts | 89° |
| 2026-04-20 20:01 | 37.73337 | -91.24011 | 35283 ft | 524 kts | 89° |
| 2026-04-20 20:01 | 37.72823 | -91.14836 | 35286 ft | 524 kts | 89° |
| 2026-04-20 20:02 | 37.72300 | -91.05646 | 35302 ft | 525 kts | 89° |
| 2026-04-20 20:02 | 37.71769 | -90.96444 | 35296 ft | 525 kts | 89° |
| 2026-04-20 20:03 | 37.71231 | -90.87246 | 35279 ft | 525 kts | 89° |
| 2026-04-20 20:03 | 37.70778 | -90.79600 | 35290 ft | 525 kts | 89° |
| 2026-04-20 20:04 | 37.70226 | -90.70387 | 35315 ft | 526 kts | 89° |
| 2026-04-20 20:04 | 37.69667 | -90.61160 | 35310 ft | 527 kts | 89° |
| 2026-04-20 20:05 | 37.69099 | -90.51922 | 35300 ft | 528 kts | 89° |
| 2026-04-20 20:05 | 37.68522 | -90.42666 | 35302 ft | 528 kts | 89° |
| 2026-04-20 20:06 | 37.67944 | -90.33477 | 35321 ft | 529 kts | 89° |
| 2026-04-20 20:06 | 37.67493 | -90.24224 | 35307 ft | 525 kts | 84° |
| 2026-04-20 20:07 | 37.68121 | -90.15141 | 35313 ft | 515 kts | 75° |
| 2026-04-20 20:07 | 37.69201 | -90.06194 | 35321 ft | 515 kts | 75° |
| 2026-04-20 20:08 | 37.70252 | -89.97228 | 35340 ft | 516 kts | 75° |
| 2026-04-20 20:08 | 37.71264 | -89.88241 | 35321 ft | 517 kts | 75° |
| 2026-04-20 20:09 | 37.72249 | -89.79305 | 35321 ft | 517 kts | 75° |
| 2026-04-20 20:09 | 37.73231 | -89.70327 | 35317 ft | 515 kts | 75° |
| 2026-04-20 20:10 | 37.74208 | -89.61368 | 35318 ft | 514 kts | 75° |
| 2026-04-20 20:10 | 37.75176 | -89.52435 | 35323 ft | 512 kts | 75° |
| 2026-04-20 20:11 | 37.76136 | -89.43522 | 35323 ft | 512 kts | 75° |
| 2026-04-20 20:11 | 37.77090 | -89.34598 | 35322 ft | 512 kts | 75° |
| 2026-04-20 20:12 | 37.78031 | -89.25723 | 35324 ft | 512 kts | 75° |
| 2026-04-20 20:12 | 37.78974 | -89.16771 | 35326 ft | 514 kts | 75° |
| 2026-04-20 20:13 | 37.80374 | -89.03339 | 35341 ft | 514 kts | 75° |
| 2026-04-20 20:13 | 37.81299 | -88.94371 | 35339 ft | 514 kts | 75° |
| 2026-04-20 20:14 | 37.82217 | -88.85411 | 35361 ft | 513 kts | 75° |
| 2026-04-20 20:14 | 37.83130 | -88.76444 | 35350 ft | 514 kts | 76° |
| 2026-04-20 20:15 | 37.84031 | -88.67522 | 35348 ft | 514 kts | 76° |
| 2026-04-20 20:15 | 37.84930 | -88.58540 | 35349 ft | 514 kts | 76° |
| 2026-04-20 20:16 | 37.85823 | -88.49555 | 35351 ft | 515 kts | 76° |
| 2026-04-20 20:16 | 37.86712 | -88.40541 | 35342 ft | 515 kts | 76° |
| 2026-04-20 20:17 | 37.87593 | -88.31527 | 35345 ft | 515 kts | 76° |
| 2026-04-20 20:17 | 37.88466 | -88.22527 | 35358 ft | 515 kts | 76° |
| 2026-04-20 20:18 | 37.89331 | -88.13535 | 35365 ft | 515 kts | 76° |
| 2026-04-20 20:18 | 37.90184 | -88.04595 | 35368 ft | 515 kts | 76° |
| 2026-04-20 20:19 | 37.91037 | -87.95596 | 35357 ft | 515 kts | 76° |
| 2026-04-20 20:19 | 37.91882 | -87.86595 | 35355 ft | 514 kts | 76° |
| 2026-04-20 20:20 | 37.92727 | -87.77600 | 35362 ft | 513 kts | 75° |
| 2026-04-20 20:20 | 37.93494 | -87.73249 | 35369 ft | 500 kts | 63° |
| 2026-04-20 20:20 | 37.94745 | -87.69169 | 35397 ft | 495 kts | 60° |
| 2026-04-20 20:21 | 37.97498 | -87.61164 | 35358 ft | 495 kts | 59° |
| 2026-04-20 20:21 | 38.00198 | -87.53125 | 35355 ft | 496 kts | 60° |
| 2026-04-20 20:22 | 38.02782 | -87.45063 | 35350 ft | 496 kts | 60° |
| 2026-04-20 20:22 | 38.05341 | -87.36928 | 35351 ft | 496 kts | 61° |
| 2026-04-20 20:23 | 38.07898 | -87.28780 | 35349 ft | 497 kts | 61° |
| 2026-04-20 20:23 | 38.10457 | -87.20629 | 35350 ft | 497 kts | 61° |
| 2026-04-20 20:24 | 38.13013 | -87.12467 | 35348 ft | 497 kts | 61° |
| 2026-04-20 20:24 | 38.15546 | -87.04357 | 35366 ft | 497 kts | 60° |
| 2026-04-20 20:25 | 38.18091 | -86.96181 | 35353 ft | 497 kts | 61° |
| 2026-04-20 20:25 | 38.20633 | -86.87991 | 35351 ft | 498 kts | 60° |
| 2026-04-20 20:26 | 38.23167 | -86.79803 | 35346 ft | 497 kts | 60° |
| 2026-04-20 20:26 | 38.25692 | -86.71622 | 35350 ft | 497 kts | 61° |
| 2026-04-20 20:27 | 38.27617 | -86.63109 | 35248 ft | 502 kts | 70° |
| 2026-04-20 20:27 | 38.28308 | -86.58761 | 34745 ft | 497 kts | 71° |
| 2026-04-20 20:27 | 38.28964 | -86.54470 | 34188 ft | 492 kts | 70° |
| 2026-04-20 20:28 | 38.29636 | -86.50264 | 33518 ft | 488 kts | 70° |
| 2026-04-20 20:28 | 38.30346 | -86.46057 | 32845 ft | 484 kts | 69° |
| 2026-04-20 20:28 | 38.31075 | -86.41899 | 32234 ft | 480 kts | 69° |
| 2026-04-20 20:28 | 38.31809 | -86.37777 | 31646 ft | 475 kts | 69° |
| 2026-04-20 20:29 | 38.32538 | -86.33691 | 31083 ft | 471 kts | 69° |
| 2026-04-20 20:29 | 38.33256 | -86.29641 | 30521 ft | 467 kts | 69° |
| 2026-04-20 20:29 | 38.33966 | -86.25616 | 29904 ft | 464 kts | 69° |
| 2026-04-20 20:29 | 38.34671 | -86.21623 | 29248 ft | 458 kts | 68° |
| 2026-04-20 20:30 | 38.35698 | -86.17873 | 28610 ft | 439 kts | 54° |
| 2026-04-20 20:30 | 38.37159 | -86.14507 | 28019 ft | 431 kts | 50° |
| 2026-04-20 20:30 | 38.38679 | -86.11233 | 27410 ft | 427 kts | 50° |
| 2026-04-20 20:30 | 38.40187 | -86.07979 | 26834 ft | 425 kts | 50° |
| 2026-04-20 20:31 | 38.41665 | -86.04725 | 26275 ft | 422 kts | 51° |
| 2026-04-20 20:31 | 38.43109 | -86.01482 | 25738 ft | 420 kts | 51° |
| 2026-04-20 20:31 | 38.44531 | -85.98242 | 25226 ft | 417 kts | 51° |
| 2026-04-20 20:31 | 38.45936 | -85.95014 | 24697 ft | 415 kts | 51° |
| 2026-04-20 20:32 | 38.47329 | -85.91804 | 24205 ft | 413 kts | 52° |
| 2026-04-20 20:32 | 38.48711 | -85.88611 | 23667 ft | 410 kts | 52° |
| 2026-04-20 20:32 | 38.50088 | -85.85429 | 23102 ft | 408 kts | 52° |
| 2026-04-20 20:32 | 38.51452 | -85.82274 | 22565 ft | 404 kts | 52° |
| 2026-04-20 20:33 | 38.52787 | -85.79187 | 22060 ft | 401 kts | 52° |
| 2026-04-20 20:33 | 38.54130 | -85.76077 | 21550 ft | 398 kts | 52° |
| 2026-04-20 20:33 | 38.55465 | -85.72985 | 21029 ft | 396 kts | 52° |
| 2026-04-20 20:33 | 38.56791 | -85.69909 | 20515 ft | 394 kts | 52° |
| 2026-04-20 20:34 | 38.58108 | -85.66851 | 20047 ft | 391 kts | 52° |
| 2026-04-20 20:34 | 38.59412 | -85.63819 | 19573 ft | 388 kts | 52° |
| 2026-04-20 20:34 | 38.60710 | -85.60801 | 19093 ft | 386 kts | 53° |
| 2026-04-20 20:34 | 38.61997 | -85.57805 | 18613 ft | 383 kts | 53° |
| 2026-04-20 20:35 | 38.63276 | -85.54824 | 18059 ft | 381 kts | 53° |
| 2026-04-20 20:35 | 38.64547 | -85.51861 | 17561 ft | 378 kts | 53° |
| 2026-04-20 20:35 | 38.65805 | -85.48925 | 17055 ft | 375 kts | 53° |
| 2026-04-20 20:35 | 38.67038 | -85.46045 | 16561 ft | 372 kts | 53° |
| 2026-04-20 20:36 | 38.68274 | -85.43156 | 16070 ft | 368 kts | 53° |
| 2026-04-20 20:36 | 38.69635 | -85.40424 | 15584 ft | 359 kts | 46° |
| 2026-04-20 20:36 | 38.71140 | -85.37891 | 15098 ft | 354 kts | 44° |
| 2026-04-20 20:36 | 38.72652 | -85.35424 | 14608 ft | 346 kts | 44° |
| 2026-04-20 20:37 | 38.74086 | -85.33024 | 13519 ft | 335 kts | 45° |
| 2026-04-20 20:37 | 38.75477 | -85.30643 | 12178 ft | 333 kts | 46° |
| 2026-04-20 20:37 | 38.76854 | -85.28267 | 10903 ft | 330 kts | 47° |
| 2026-04-20 20:37 | 38.78159 | -85.25895 | 9622 ft | 333 kts | 55° |
| 2026-04-20 20:38 | 38.78911 | -85.22988 | 8814 ft | 351 kts | 78° |
| 2026-04-20 20:38 | 38.79072 | -85.19877 | 8469 ft | 345 kts | 85° |
| 2026-04-20 20:38 | 38.79103 | -85.16851 | 8270 ft | 333 kts | 86° |
| 2026-04-20 20:38 | 38.79122 | -85.13918 | 8034 ft | 323 kts | 86° |
| 2026-04-20 20:39 | 38.79161 | -85.11078 | 7771 ft | 315 kts | 85° |
| 2026-04-20 20:39 | 38.79222 | -85.08297 | 7420 ft | 310 kts | 85° |
| 2026-04-20 20:39 | 38.79296 | -85.05583 | 7231 ft | 298 kts | 85° |
| 2026-04-20 20:39 | 38.79370 | -85.02989 | 7136 ft | 284 kts | 85° |
| 2026-04-20 20:40 | 38.79441 | -85.00517 | 7057 ft | 272 kts | 85° |
| 2026-04-20 20:40 | 38.79504 | -84.98114 | 6995 ft | 267 kts | 88° |
| 2026-04-20 20:40 | 38.79199 | -84.95735 | 7030 ft | 277 kts | 104° |
| 2026-04-20 20:40 | 38.78575 | -84.93364 | 7003 ft | 283 kts | 109° |
| 2026-04-20 20:41 | 38.77900 | -84.91032 | 6990 ft | 283 kts | 109° |
| 2026-04-20 20:41 | 38.77220 | -84.88668 | 6990 ft | 283 kts | 108° |
| 2026-04-20 20:41 | 38.76555 | -84.86298 | 6992 ft | 283 kts | 108° |
| 2026-04-20 20:41 | 38.75902 | -84.83920 | 6988 ft | 282 kts | 107° |
| 2026-04-20 20:42 | 38.75258 | -84.81547 | 6999 ft | 282 kts | 107° |
| 2026-04-20 20:42 | 38.74620 | -84.79173 | 6999 ft | 282 kts | 107° |
| 2026-04-20 20:42 | 38.73981 | -84.76786 | 6992 ft | 283 kts | 107° |
| 2026-04-20 20:42 | 38.73344 | -84.74405 | 7002 ft | 282 kts | 107° |
| 2026-04-20 20:43 | 38.72708 | -84.72027 | 6990 ft | 282 kts | 106° |
| 2026-04-20 20:43 | 38.72450 | -84.69650 | 6995 ft | 261 kts | 79° |
| 2026-04-20 20:43 | 38.73042 | -84.67581 | 6981 ft | 239 kts | 50° |
| 2026-04-20 20:43 | 38.74177 | -84.66096 | 6759 ft | 237 kts | 32° |
| 2026-04-20 20:44 | 38.75648 | -84.65225 | 6246 ft | 227 kts | 8° |
| 2026-04-20 20:44 | 38.77158 | -84.64963 | 5832 ft | 213 kts | 4° |
| 2026-04-20 20:44 | 38.78628 | -84.64835 | 5514 ft | 213 kts | 1° |
| 2026-04-20 20:44 | 38.80132 | -84.64789 | 5269 ft | 222 kts | 360° |
| 2026-04-20 20:45 | 38.81697 | -84.64776 | 4950 ft | 226 kts | 360° |
| 2026-04-20 20:45 | 38.83253 | -84.64768 | 4630 ft | 221 kts | 360° |
| 2026-04-20 20:45 | 38.84775 | -84.64762 | 4327 ft | 216 kts | 360° |
| 2026-04-20 20:45 | 38.86247 | -84.64757 | 4103 ft | 212 kts | 360° |
| 2026-04-20 20:46 | 38.87676 | -84.64750 | 3964 ft | 198 kts | 360° |
| 2026-04-20 20:46 | 38.89016 | -84.64743 | 3700 ft | 187 kts | 359° |
| 2026-04-20 20:46 | 38.90300 | -84.64737 | 3478 ft | 182 kts | 360° |
| 2026-04-20 20:46 | 38.91545 | -84.64732 | 3228 ft | 176 kts | 360° |
| 2026-04-20 20:47 | 38.92353 | -84.64729 | 3054 ft | 174 kts | 360° |
| 2026-04-20 20:47 | 38.93554 | -84.64723 | 2831 ft | 171 kts | 360° |
| 2026-04-20 20:47 | 38.94735 | -84.64718 | 2576 ft | 168 kts | 0° |
| 2026-04-20 20:47 | 38.96304 | -84.64708 | 2302 ft | 172 kts | 360° |
| 2026-04-20 20:48 | 38.97108 | -84.64705 | 2139 ft | 169 kts | 360° |
| 2026-04-20 20:48 | 38.98266 | -84.64702 | 1892 ft | 168 kts | 360° |
| 2026-04-20 20:48 | 38.99459 | -84.64695 | 1647 ft | 170 kts | 0° |
| 2026-04-20 20:48 | 39.00626 | -84.64690 | 1382 ft | 166 kts | 0° |
| 2026-04-20 20:49 | 39.01716 | -84.64677 | 1148 ft | 150 kts | 360° |
| 2026-04-20 20:49 | 39.02730 | -84.64673 | 947 ft | 142 kts | 0° |
| 2026-04-20 20:49 | 39.03700 | -84.64651 | 883 ft | 130 kts | 357° |
| 2026-04-20 20:49 | 39.04464 | -84.64669 | 880 ft | 90 kts | 0° |
| 2026-04-20 20:50 | 39.04896 | -84.64673 | 879 ft | 37 kts | 355° |
| 2026-04-20 20:50 | 39.05043 | -84.64758 | 878 ft | 19 kts | 333° |
| 2026-04-20 20:50 | 39.05108 | -84.64828 | 877 ft | 13 kts | 302° |
| 2026-04-20 20:50 | 39.05140 | -84.64934 | 877 ft | 13 kts | 266° |
| 2026-04-20 20:51 | 39.05065 | -84.64984 | 881 ft | 13 kts | 183° |
| 2026-04-20 20:51 | 39.04971 | -84.64988 | 884 ft | 13 kts | 181° |
| 2026-04-20 20:51 | 39.04868 | -84.64987 | 884 ft | 17 kts | 180° |
| 2026-04-20 20:51 | 39.04742 | -84.64988 | 883 ft | 19 kts | 180° |
| 2026-04-20 20:52 | 39.04610 | -84.64988 | 884 ft | 19 kts | 180° |
| 2026-04-20 20:52 | 39.04474 | -84.64988 | 882 ft | 21 kts | 180° |
| 2026-04-20 20:52 | 39.04323 | -84.64990 | 880 ft | 22 kts | 182° |
| 2026-04-20 20:52 | 39.04169 | -84.64991 | 881 ft | 22 kts | 180° |
| 2026-04-20 20:53 | 39.04016 | -84.64993 | 879 ft | 22 kts | 180° |
| 2026-04-20 20:53 | 39.03862 | -84.64994 | 882 ft | 22 kts | 180° |
| 2026-04-20 20:53 | 39.03708 | -84.64995 | 884 ft | 22 kts | 180° |
| 2026-04-20 20:53 | 39.03590 | -84.65020 | 887 ft | 11 kts | 234° |
| 2026-04-20 20:54 | 39.03570 | -84.65116 | 890 ft | 11 kts | 260° |
| 2026-04-20 20:54 | 39.03504 | -84.65158 | 890 ft | 12 kts | 181° |
| 2026-04-20 20:54 | 39.03419 | -84.65158 | 891 ft | 13 kts | 179° |
| 2026-04-20 20:54 | 39.03330 | -84.65157 | 892 ft | 13 kts | 179° |
| 2026-04-20 20:55 | 39.03271 | -84.65156 | 892 ft | 3 kts | 179° |
| 2026-04-20 20:55 | 39.03243 | -84.65155 | 892 ft | 5 kts | 178° |
| 2026-04-20 20:55 | 39.03213 | -84.65181 | 892 ft | 6 kts | 250° |
| 2026-04-20 20:55 | 39.03225 | -84.65213 | 893 ft | 1 kts | 303° |
| 2026-04-20 20:56 | 39.03235 | -84.65233 | 893 ft | 2 kts | 301° |
| 2026-04-20 20:56 | 39.03236 | -84.65237 | 893 ft | 0 kts | 301° |